Main page
METAR-TAF:

METAR-TAF

Airports :

São José do Rio Preto Airport

São José do Rio Preto, São Paulo, Brazil

latitude: 20-48-58S, longitude: 049-24-17W, elevation: 543 m

Current weather observation

The report was made 27 minutes ago, at 10:00 UTC
Wind 5 kt from the Northeast
Temperature 22°C
Humidity 94%
Pressure 1013 hPa
Visibility 10 km or more
Scattered clouds at a height of 3500 ft
Broken clouds at a height of 7000 ft

METAR: SBSR 141000Z 04005KT 9999 SCT035 BKN070 22/21 Q1013

Time: 08:27 (10:27 UTC)


TAF: missing

Weather observations and forecasts of more than 4000 airports (METAR and TAF reports).

The available stations are represented by yellow and red dots on the map.

Hover mouse over dot to see the name of the station.

Then click to see weather observations and forecasts.

To change the map : click on the green buttons with a black cross to zoom in, on the green button with a dash to zoom out, or on the green arrows for adjacent maps.


METAR-TAF: